Fabian Garcia SC

April 5, 2020, 11 a.m.

  • imperial
Air Temperature RH Dewpoint Wind Chill Heat Index Wind Speed Wind Direction Precipitation Solar Radiation Soil Temperature
Date Time Max Mean Mean Total Total
US/Mountain F % F F F MPH MPH MPH deg. deg. in. MJ/m^2 F
2020-04-04 11:00 67.78 25.74 31.39 67.78 67.78 3.49 6.0 3.49 269.4 231.0 0.0 0.231 54.82
2020-04-04 11:05 68.88 26.04 32.62 68.88 68.88 3.13 3.67 2.3 131.4 172.4 0.0 0.233 54.9
2020-04-04 11:10 69.55 25.2 32.37 69.55 69.55 2.24 5.46 3.2 141.9 108.9 0.0 0.238 54.97
2020-04-04 11:15 69.12 25.23 32.03 69.12 69.12 3.67 6.0 3.85 93.7 194.8 0.0 0.24 55.09
2020-04-04 11:20 69.73 23.74 31.04 69.73 69.73 4.56 6.35 2.91 159.2 108.8 0.0 0.244 55.17
2020-04-04 11:25 69.78 25.2 32.57 69.78 69.78 0.81 4.74 2.91 288.1 88.4 0.0 0.246 55.24
2020-04-04 11:30 71.31 22.42 30.96 71.31 71.31 3.67 5.82 3.09 125.1 117.5 0.0 0.248 55.35
2020-04-04 11:35 72.41 22.52 31.99 72.41 72.41 3.31 5.46 3.15 102.5 154.5 0.0 0.252 55.44
2020-04-04 11:40 72.28 19.3 28.09 72.28 72.28 3.67 6.89 4.32 136.1 156.2 0.0 0.256 55.53
2020-04-04 11:45 72.16 16.66 24.43 72.16 72.16 7.43 9.4 5.23 227.6 196.8 0.0 0.257 55.63
2020-04-04 11:50 71.55 15.85 22.75 71.55 71.55 3.31 9.4 5.91 292.8 236.3 0.0 0.259 55.76
2020-04-04 11:55 71.31 16.29 23.21 71.31 71.31 8.3 11.52 6.8 218.8 258.9 0.0 0.26 55.85
2020-04-04 12:00 71.67 14.97 21.49 71.67 71.67 5.46 12.95 8.34 243.5 222.9 0.0 0.263 55.94
2020-04-04 12:05 72.54 14.77 21.87 72.54 72.54 7.25 9.4 6.62 264.9 210.4 0.0 0.264 56.07
2020-04-04 12:10 72.66 15.75 23.5 72.66 72.66 10.09 11.88 8.3 231.4 236.3 0.0 0.265 56.17
2020-04-04 12:15 71.51 15.72 22.52 71.51 71.51 8.86 12.24 8.61 219.0 209.3 0.0 0.266 56.28
2020-04-04 12:20 72.43 15.61 23.09 72.43 72.43 9.57 12.06 6.87 233.4 230.2 0.0 0.267 56.39
2020-04-04 12:25 72.18 15.92 23.36 72.18 72.18 6.53 11.16 8.48 257.2 239.0 0.0 0.268 56.52
2020-04-04 12:30 73.27 15.78 24.03 73.27 73.27 7.96 14.2 8.32 214.5 246.9 0.0 0.269 56.62
2020-04-04 12:35 72.73 15.11 22.56 72.73 72.73 10.45 13.67 10.07 242.0 246.3 0.0 0.271 56.71
2020-04-04 12:40 71.76 14.73 21.18 71.76 71.76 3.85 10.63 5.77 276.7 235.2 0.0 0.27 56.84
2020-04-04 12:45 73.35 14.16 21.51 73.35 73.35 11.34 12.59 6.98 252.6 246.4 0.0 0.272 56.93
2020-04-04 12:50 72.79 14.6 21.79 72.79 72.79 11.88 13.31 9.87 242.5 236.6 0.0 0.272 57.02
2020-04-04 12:55 72.91 15.51 23.33 72.91 72.91 1.34 10.63 6.06 62.3 262.2 0.0 0.27 57.13
2020-04-04 13:00 74.14 14.36 22.48 74.14 74.14 11.52 13.31 7.11 252.7 230.2 0.0 0.276 57.2
2020-04-04 13:05 73.78 15.72 24.35 73.78 73.78 8.86 12.95 6.29 268.7 238.2 0.0 0.274 57.27
2020-04-04 13:10 73.78 13.58 20.87 73.78 73.78 9.22 14.2 10.27 237.9 237.1 0.0 0.273 57.34
2020-04-04 13:15 73.17 13.85 20.85 73.17 73.17 5.1 15.46 9.06 189.3 221.9 0.0 0.274 57.4
2020-04-04 13:20 73.27 14.87 22.62 73.27 73.27 7.25 10.09 7.11 244.1 233.6 0.0 0.272 57.47
2020-04-04 13:25 74.01 14.97 23.37 74.01 74.01 6.35 11.52 7.29 231.7 238.8 0.0 0.273 57.51
2020-04-04 13:30 73.58 14.84 22.81 73.58 73.58 9.22 15.46 11.3 231.4 248.5 0.0 0.272 57.54
2020-04-04 13:35 74.25 16.05 25.22 74.25 74.25 4.56 9.22 6.91 292.1 240.7 0.0 0.271 57.56
2020-04-04 13:40 74.07 14.39 22.47 74.07 74.07 10.09 10.8 7.7 210.7 254.8 0.0 0.27 57.6
2020-04-04 13:45 74.01 14.02 21.81 74.01 74.01 7.61 13.13 7.65 217.9 250.0 0.0 0.27 57.63
2020-04-04 13:50 74.8 14.5 23.24 74.8 74.8 4.21 8.3 5.15 211.2 198.9 0.0 0.269 57.69
2020-04-04 13:55 74.37 13.78 21.69 74.37 74.37 10.8 14.92 8.68 234.1 255.7 0.0 0.271 57.72
2020-04-04 14:00 74.55 12.26 19.08 74.55 74.55 10.8 15.46 10.87 209.9 225.1 0.0 0.269 57.76
2020-04-04 14:05 74.25 13.45 21.01 74.25 74.25 9.04 14.56 9.87 228.6 219.7 0.0 0.266 57.83
2020-04-04 14:10 74.12 13.82 21.55 74.12 74.12 4.56 10.8 6.69 236.4 237.6 0.0 0.264 57.88
2020-04-04 14:15 75.83 12.26 20.08 75.83 75.83 7.61 12.59 7.31 209.6 225.9 0.0 0.264 57.97
2020-04-04 14:20 75.52 13.21 21.6 75.52 75.52 8.68 15.64 8.99 214.1 225.1 0.0 0.263 58.05
2020-04-04 14:25 75.51 14.05 23.05 75.51 75.51 5.1 11.34 6.49 234.7 223.8 0.0 0.261 58.12
2020-04-04 14:30 74.84 13.07 20.81 74.84 74.84 9.4 14.74 10.22 281.2 253.8 0.0 0.259 58.23
2020-04-04 14:35 75.58 13.07 21.39 75.58 75.58 8.48 14.38 10.38 225.6 249.3 0.0 0.256 58.32
2020-04-04 14:40 75.2 13.24 21.39 75.2 75.2 15.82 15.82 10.56 194.9 217.7 0.0 0.255 58.42
2020-04-04 14:45 74.84 13.51 21.59 74.84 74.84 4.92 13.85 8.52 233.0 226.8 0.0 0.253 58.5
2020-04-04 14:50 75.27 12.16 19.45 75.27 75.27 12.77 18.14 11.01 243.3 239.1 0.0 0.251 58.62
2020-04-04 14:55 75.2 12.26 19.58 75.2 75.2 8.12 15.46 9.84 242.6 217.0 0.0 0.249 58.69
2020-04-04 15:00 75.56 11.65 18.67 75.56 75.56 4.56 12.42 8.41 232.1 219.4 0.0 0.247 58.8
2020-04-04 15:05 75.2 12.87 20.73 75.2 75.2 9.91 17.25 11.5 200.2 239.6 0.0 0.244 58.91
2020-04-04 15:10 75.76 12.6 20.66 75.76 75.76 9.91 15.99 10.45 236.2 251.4 0.0 0.241 59.0
2020-04-04 15:15 75.69 12.8 20.98 75.69 75.69 7.96 13.85 9.37 222.3 247.1 0.0 0.238 59.07
2020-04-04 15:20 75.92 13.61 22.62 75.92 75.92 6.35 11.34 8.9 271.5 240.1 0.0 0.234 59.18
2020-04-04 15:25 75.69 13.68 22.55 75.69 75.69 10.45 14.56 9.55 206.7 243.9 0.0 0.23 59.25
2020-04-04 15:30 75.85 12.36 20.28 75.85 75.85 11.52 11.88 8.86 202.0 215.1 0.0 0.227 59.34
2020-04-04 15:35 76.15 12.66 21.09 76.15 76.15 7.96 13.31 8.05 165.8 196.1 0.0 0.222 59.41
2020-04-04 15:40 76.51 12.05 20.21 76.51 76.51 12.24 12.24 8.48 172.7 199.1 0.0 0.22 59.49
2020-04-04 15:45 76.64 12.83 21.78 76.64 76.64 9.91 14.92 9.31 245.6 208.1 0.0 0.219 59.58
2020-04-04 15:50 75.47 12.7 20.62 75.47 75.47 6.17 13.31 9.6 210.2 219.5 0.0 0.212 59.65
2020-04-04 15:55 76.03 12.36 20.42 76.03 76.03 8.3 14.2 9.31 222.1 222.8 0.0 0.209 59.72
2020-04-04 16:00 76.93 12.22 20.86 76.93 76.93 5.1 11.88 7.9 225.8 215.2 0.0 0.205 59.76
2020-04-04 16:05 77.11 12.25 21.06 77.11 77.11 9.4 13.85 8.21 226.2 209.7 0.0 0.203 59.83
2020-04-04 16:10 76.75 11.65 19.6 76.75 76.75 16.17 16.17 9.98 232.6 219.1 0.0 0.197 59.92
2020-04-04 16:15 76.39 12.46 20.89 76.39 76.39 12.95 15.99 10.92 263.2 223.4 0.0 0.193 59.95
2020-04-04 16:20 75.78 12.12 19.77 75.78 75.78 8.3 16.89 11.05 260.3 237.5 0.0 0.189 60.03
2020-04-04 16:25 75.96 12.8 21.19 75.96 75.96 4.21 15.28 9.28 197.1 219.7 0.0 0.182 60.08
2020-04-04 16:30 76.62 12.8 21.71 76.62 76.62 9.22 11.16 7.52 229.4 213.2 0.0 0.181 60.15
2020-04-04 16:35 76.01 12.56 20.79 76.01 76.01 6.0 16.17 10.49 244.1 219.9 0.0 0.175 60.19
2020-04-04 16:40 76.75 12.09 20.47 76.75 76.75 5.1 13.49 8.46 176.4 217.0 0.0 0.171 60.22
2020-04-04 16:45 76.26 12.15 20.2 76.26 76.26 12.06 15.46 9.31 255.4 216.0 0.0 0.166 60.28
2020-04-04 16:50 76.51 12.05 20.21 76.51 76.51 8.86 14.38 10.27 249.5 244.8 0.0 0.161 60.35
2020-04-04 16:55 76.14 12.46 20.7 76.14 76.14 10.63 15.1 10.29 213.4 224.3 0.0 0.156 60.39
2020-04-04 17:00 76.39 12.53 21.03 76.39 76.39 10.63 15.28 9.02 276.0 225.1 0.0 0.15 60.4
2020-04-04 17:05 76.26 12.73 21.3 76.26 76.26 7.78 15.82 10.83 212.7 246.0 0.0 0.145 60.42
2020-04-04 17:10 76.14 12.59 20.94 76.14 76.14 11.88 14.03 10.13 181.1 190.9 0.0 0.14 60.46
2020-04-04 17:15 77.11 12.76 22.02 77.11 77.11 4.92 12.42 7.72 158.2 186.3 0.0 0.135 60.49
2020-04-04 17:20 76.26 13.1 21.98 76.26 76.26 4.03 12.77 8.41 215.2 204.8 0.0 0.13 60.51
2020-04-04 17:25 76.51 12.76 21.56 76.51 76.51 8.12 9.4 6.67 211.2 213.6 0.0 0.124 60.55
2020-04-04 17:30 76.87 12.19 20.76 76.87 76.87 7.78 9.22 6.49 197.0 214.2 0.0 0.095 60.53
2020-04-04 17:35 77.18 11.65 19.93 77.18 77.18 4.92 12.06 5.64 247.1 228.4 0.0 0.053 60.58
2020-04-04 17:40 76.62 9.95 15.83 76.62 76.62 13.49 14.56 9.13 208.9 219.7 0.0 0.081 60.58
2020-04-04 17:45 76.69 10.05 16.12 76.69 76.69 7.96 14.92 7.96 188.0 216.7 0.0 0.103 60.57
2020-04-04 17:50 76.87 10.43 17.12 76.87 76.87 9.73 13.67 9.35 226.4 211.8 0.0 0.098 60.6
2020-04-04 17:55 76.26 10.43 16.65 76.26 76.26 10.45 16.35 10.78 218.7 220.2 0.0 0.092 60.62
2020-04-04 18:00 76.39 10.53 16.96 76.39 76.39 9.73 11.34 7.54 229.0 224.2 0.0 0.087 60.62
2020-04-04 18:05 76.51 10.16 16.23 76.51 76.51 11.16 12.24 8.25 194.1 208.7 0.0 0.081 60.62
2020-04-04 18:10 76.15 10.33 16.34 76.15 76.15 9.73 13.49 7.61 244.4 227.1 0.0 0.076 60.62
2020-04-04 18:15 76.28 10.63 17.1 76.28 76.28 10.98 14.03 8.23 203.4 213.5 0.0 0.071 60.62
2020-04-04 18:20 76.1 11.21 18.19 76.1 76.1 5.1 12.77 8.05 228.5 232.7 0.0 0.065 60.62
2020-04-04 18:25 76.05 10.73 17.14 76.05 76.05 4.38 10.27 7.29 197.9 208.9 0.0 0.06 60.62
2020-04-04 18:30 75.81 10.5 16.45 75.81 75.81 14.38 14.74 7.92 219.2 233.1 0.0 0.055 60.6
2020-04-04 18:35 75.69 10.57 16.51 75.69 75.69 5.82 17.25 9.24 220.6 215.6 0.0 0.049 60.6
2020-04-04 18:40 75.58 10.53 16.34 75.58 75.58 8.86 13.49 7.94 210.4 224.6 0.0 0.044 60.58
2020-04-04 18:45 75.07 11.21 17.4 75.07 75.07 7.78 13.85 8.77 251.2 230.9 0.0 0.039 60.58
2020-04-04 18:50 75.15 11.11 17.25 75.15 75.15 5.46 9.73 7.07 240.4 217.8 0.0 0.034 60.57
2020-04-04 18:55 74.97 11.24 17.38 74.97 74.97 4.92 8.12 5.7 220.9 235.7 0.0 0.028 60.55
2020-04-04 19:00 74.84 11.18 17.16 74.84 74.84 5.82 8.68 5.91 200.4 219.7 0.0 0.022 60.53
2020-04-04 19:05 74.59 11.48 17.57 74.59 74.59 6.53 6.89 5.35 232.3 219.3 0.0 0.016 60.51
2020-04-04 19:10 74.23 11.51 17.36 74.23 74.23 5.28 6.89 4.68 232.5 222.7 0.0 0.012 60.49
2020-04-04 19:15 73.87 11.99 18.02 73.87 73.87 6.35 8.12 4.88 211.6 217.7 0.0 0.008 60.48
2020-04-04 19:20 73.51 12.43 18.58 73.51 73.51 4.38 9.4 5.48 229.2 231.8 0.0 0.005 60.46
2020-04-04 19:25 73.02 12.67 18.65 73.02 73.02 3.67 9.04 5.84 256.0 241.6 0.0 0.003 60.42
2020-04-04 19:30 72.23 13.14 18.87 72.23 72.23 1.16 4.21 2.39 242.1 240.1 0.0 0.002 60.4
2020-04-04 19:35 71.56 13.38 18.77 71.56 71.56 3.13 3.49 2.28 256.2 257.9 0.0 0.001 60.39
2020-04-04 19:40 71.1 13.62 18.81 71.1 71.1 1.16 6.71 2.84 245.9 253.0 0.0 0.001 60.35
2020-04-04 19:45 70.36 14.36 19.46 70.36 70.36 1.34 1.7 1.12 262.2 234.6 0.0 0.0 60.31
2020-04-04 19:50 69.64 15.04 19.97 69.64 69.64 0.98 1.52 0.92 200.9 225.4 0.0 0.0 60.28
2020-04-04 19:55 68.59 16.26 20.97 68.59 68.59 0.0 0.98 0.13 196.6 201.3 0.0 0.0 60.26
2020-04-04 20:00 67.32 17.14 21.17 67.32 67.32 0.0 0.0 0.0 185.2 0.0 0.0 0.0 60.21
2020-04-04 20:05 65.86 18.23 21.44 65.86 65.86 0.0 0.0 0.0 185.2 0.0 0.0 0.0 60.17
2020-04-04 20:10 65.26 20.13 23.3 65.26 65.26 0.0 0.81 0.02 209.8 207.3 0.0 0.0 60.13
2020-04-04 20:15 65.57 18.16 21.11 65.57 65.57 2.95 2.95 1.1 287.3 254.4 0.0 0.0 60.08
2020-04-04 20:20 65.46 19.25 22.4 65.46 65.46 3.49 3.49 1.36 244.0 257.5 0.0 0.0 60.04
2020-04-04 20:25 66.02 17.82 21.03 66.02 66.02 2.77 3.85 2.55 261.3 253.5 0.0 0.0 59.99
2020-04-04 20:30 66.51 17.11 20.47 66.51 66.51 2.95 4.74 2.84 242.9 250.2 0.0 0.0 59.94
2020-04-04 20:35 66.51 17.11 20.47 66.51 66.51 2.24 3.13 2.01 275.2 266.3 0.0 0.0 59.88
2020-04-04 20:40 66.02 17.76 20.96 66.02 66.02 0.81 2.42 1.14 246.9 273.7 0.0 0.0 59.86
2020-04-04 20:45 65.3 18.71 21.6 65.3 65.3 0.0 1.16 0.29 227.3 264.6 0.0 0.0 59.79
2020-04-04 20:50 64.2 19.93 22.18 64.2 64.2 0.0 1.52 0.69 212.1 215.9 0.0 0.0 59.76
2020-04-04 20:55 63.23 20.47 22.01 63.23 63.23 0.0 0.0 0.0 203.4 0.0 0.0 0.0 59.72
2020-04-04 21:00 62.2 22.27 23.16 62.2 62.2 0.0 0.0 0.0 203.4 0.0 0.0 0.0 59.63
2020-04-04 21:05 61.41 23.05 23.31 61.41 61.41 0.0 0.0 0.0 174.5 0.0 0.0 0.0 59.59
2020-04-04 21:10 61.23 24.71 24.82 61.23 61.23 0.0 1.52 0.34 165.6 163.7 0.0 0.0 59.54
2020-04-04 21:15 60.57 24.81 24.35 60.57 60.57 0.0 0.81 0.02 163.5 169.4 0.0 0.0 59.49
2020-04-04 21:20 60.06 25.29 24.38 60.06 60.06 0.0 0.0 0.0 187.1 0.0 0.0 0.0 59.43
2020-04-04 21:25 59.72 25.94 24.7 59.72 59.72 0.0 0.0 0.0 179.6 0.0 0.0 0.0 59.4
2020-04-04 21:30 59.23 26.51 24.8 59.23 59.23 0.0 0.0 0.0 187.5 0.0 0.0 0.0 59.34
2020-04-04 21:35 59.11 25.43 23.7 59.11 59.11 0.0 0.0 0.0 217.7 0.0 0.0 0.0 59.29
2020-04-04 21:40 59.11 26.04 24.27 59.11 59.11 0.0 0.0 0.0 207.2 0.0 0.0 0.0 59.22
2020-04-04 21:45 59.13 27.26 25.38 59.13 59.13 0.0 0.0 0.0 197.7 0.0 0.0 0.0 59.16
2020-04-04 21:50 58.57 25.47 23.28 58.57 58.57 0.0 0.0 0.0 182.2 0.0 0.0 0.0 59.11
2020-04-04 21:55 58.64 26.38 24.18 58.64 58.64 0.0 0.0 0.0 171.5 0.0 0.0 0.0 59.05
2020-04-04 22:00 58.33 28.35 25.64 58.33 58.33 0.0 0.0 0.0 162.3 0.0 0.0 0.0 59.02
2020-04-04 22:05 57.67 29.64 26.14 57.67 57.67 0.81 1.16 0.16 151.9 153.3 0.0 0.0 58.95
2020-04-04 22:10 57.42 28.21 24.73 57.42 57.42 0.0 0.81 0.02 144.2 152.0 0.0 0.0 58.91
2020-04-04 22:15 57.24 28.76 25.04 57.24 57.24 1.34 1.34 0.16 215.4 211.5 0.0 0.0 58.84
2020-04-04 22:20 57.31 29.81 25.97 57.31 57.31 1.52 4.92 2.55 211.1 207.0 0.0 0.0 58.78
2020-04-04 22:25 57.79 27.23 24.21 57.79 57.79 0.0 2.42 0.85 194.6 213.2 0.0 0.0 58.75
2020-04-04 22:30 57.43 27.54 24.17 57.43 57.43 1.34 1.7 0.2 146.7 146.5 0.0 0.0 58.69
2020-04-04 22:35 57.18 27.61 24.02 57.18 57.18 0.98 1.7 0.36 101.4 164.1 0.0 0.0 58.64
2020-04-04 22:40 57.31 27.06 23.64 57.31 57.31 0.81 2.59 1.32 125.9 119.8 0.0 0.0 58.59
2020-04-04 22:45 57.31 27.13 23.7 57.31 57.31 1.52 1.52 0.67 86.5 90.5 0.0 0.0 58.55
2020-04-04 22:50 57.07 26.52 22.96 57.07 57.07 0.0 2.24 0.76 60.0 87.3 0.0 0.0 58.5
2020-04-04 22:55 57.43 26.66 23.4 57.43 57.43 0.0 1.88 0.6 68.6 89.0 0.0 0.0 58.44
2020-04-04 23:00 58.48 25.34 23.08 58.48 58.48 3.31 5.28 1.74 276.9 219.8 0.0 0.0 58.41
2020-04-04 23:05 59.2 24.96 23.33 59.2 59.2 2.42 3.13 1.92 239.3 235.2 0.0 0.0 58.35
2020-04-04 23:10 59.4 24.52 23.08 59.4 59.4 1.7 4.21 2.35 235.4 236.0 0.0 0.0 58.3
2020-04-04 23:15 59.09 25.03 23.31 59.09 59.09 0.0 2.24 0.31 212.3 242.1 0.0 0.0 58.26
2020-04-04 23:20 58.41 25.47 23.14 58.41 58.41 0.0 1.16 0.13 163.3 359.7 0.0 0.0 58.19
2020-04-04 23:25 58.48 25.23 22.97 58.48 58.48 1.52 5.1 1.23 180.7 233.9 0.0 0.0 58.15
2020-04-04 23:30 58.28 25.44 23.0 58.28 58.28 2.95 3.13 0.6 242.4 2.9 0.0 0.0 58.1
2020-04-04 23:35 58.66 25.37 23.26 58.66 58.66 1.88 3.49 2.13 223.6 223.9 0.0 0.0 58.06
2020-04-04 23:40 59.27 24.45 22.9 59.27 59.27 2.59 5.82 3.78 221.9 240.0 0.0 0.0 58.01
2020-04-04 23:45 59.76 24.01 22.88 59.76 59.76 4.74 7.61 3.98 164.4 233.4 0.0 0.0 57.97
2020-04-04 23:50 60.42 23.4 22.83 60.42 60.42 5.46 9.73 5.12 222.7 230.9 0.0 0.0 57.94
2020-04-04 23:55 60.6 23.44 23.03 60.6 60.6 4.38 8.68 5.3 242.7 227.0 0.0 0.0 57.88
2020-04-05 00:00 60.98 23.06 22.96 60.98 60.98 8.86 8.86 5.79 220.0 225.7 0.0 0.0 57.85
2020-04-05 00:05 61.47 22.66 22.95 61.47 61.47 6.53 10.98 6.44 263.1 222.0 0.0 0.0 57.79
2020-04-05 00:10 61.21 23.3 23.4 61.21 61.21 2.24 6.89 4.14 220.9 227.3 0.0 0.0 57.76
2020-04-05 00:15 61.21 22.96 23.05 61.21 61.21 4.56 6.0 4.36 189.6 223.1 0.0 0.0 57.74
2020-04-05 00:20 61.32 22.99 23.17 61.32 61.32 5.1 6.53 4.38 257.2 245.8 0.0 0.0 57.69
2020-04-05 00:25 61.2 23.36 23.45 61.2 61.2 3.85 6.35 3.47 214.2 237.5 0.0 0.0 57.65
2020-04-05 00:30 61.14 23.26 23.3 61.14 61.14 5.1 6.71 4.07 250.7 229.0 0.0 0.0 57.61
2020-04-05 00:35 61.02 23.3 23.23 61.02 61.02 2.42 6.35 2.8 315.5 266.5 0.0 0.0 57.58
2020-04-05 00:40 60.58 23.53 23.1 60.58 60.58 1.16 3.49 1.59 63.8 353.6 0.0 0.0 57.52
2020-04-05 00:45 60.35 24.04 23.42 60.35 60.35 3.13 5.1 2.77 52.5 50.7 0.0 0.0 57.49
2020-04-05 00:50 59.38 24.55 23.09 59.38 59.38 1.7 4.21 3.15 82.1 68.7 0.0 0.0 57.45
2020-04-05 00:55 59.25 24.82 23.24 59.25 59.25 3.49 3.85 2.35 74.3 54.2 0.0 0.0 57.45
2020-04-05 01:00 57.85 27.4 24.41 57.85 57.85 5.1 5.1 3.42 48.5 46.3 0.0 0.0 57.42
2020-04-05 01:05 59.0 25.03 23.23 59.0 59.0 5.28 5.64 3.44 4.9 339.1 0.0 0.0 57.38
2020-04-05 01:10 59.38 24.82 23.35 59.38 59.38 4.92 4.92 2.33 324.0 322.8 0.0 0.0 57.33
2020-04-05 01:15 59.74 24.42 23.27 59.74 59.74 6.35 6.35 3.22 275.9 258.1 0.0 0.0 57.29
2020-04-05 01:20 59.74 24.38 23.23 59.74 59.74 1.34 8.12 3.53 232.8 295.6 0.0 0.0 57.25
2020-04-05 01:25 59.13 25.3 23.59 59.13 59.13 2.95 4.03 2.59 283.2 301.0 0.0 0.0 57.22
2020-04-05 01:30 58.77 25.77 23.73 58.77 58.77 2.06 3.49 2.28 275.4 326.9 0.0 0.0 57.18
2020-04-05 01:35 58.26 26.52 23.98 58.26 58.26 1.16 2.95 1.7 109.5 245.8 0.0 0.0 57.15
2020-04-05 01:40 58.39 26.14 23.74 58.39 58.39 2.77 4.38 2.82 243.0 225.3 0.0 0.0 57.13
2020-04-05 01:45 58.69 26.01 23.89 58.69 58.69 3.85 5.1 2.95 225.6 227.6 0.0 0.0 57.09
2020-04-05 01:50 58.28 26.32 23.81 58.28 58.28 1.88 4.74 2.51 7.3 345.9 0.0 0.0 57.06
2020-04-05 01:55 57.42 27.47 24.1 57.42 57.42 3.13 3.13 1.63 159.4 242.9 0.0 0.0 57.04
2020-04-05 02:00 57.67 27.5 24.34 57.67 57.67 3.49 4.92 2.1 106.0 127.6 0.0 0.0 57.0
2020-04-05 02:05 57.79 27.06 24.06 57.79 57.79 0.0 4.56 2.15 270.5 274.0 0.0 0.0 56.97
2020-04-05 02:10 57.92 27.0 24.12 57.92 57.92 2.24 2.77 1.63 339.4 355.0 0.0 0.0 56.93
2020-04-05 02:15 57.67 27.13 24.01 57.67 57.67 1.88 3.49 1.88 31.6 357.8 0.0 0.0 56.91
2020-04-05 02:20 57.18 27.81 24.19 57.18 57.18 1.52 3.13 2.21 298.3 1.1 0.0 0.0 56.88
2020-04-05 02:25 56.46 28.93 24.51 56.46 56.46 0.0 1.52 0.22 7.9 324.4 0.0 0.0 56.82
2020-04-05 02:30 56.21 28.62 24.04 56.21 56.21 0.0 0.98 0.07 337.7 44.6 0.0 0.0 56.8
2020-04-05 02:35 56.26 29.3 24.64 56.26 56.26 2.42 4.56 2.42 252.2 89.5 0.0 0.0 56.77
2020-04-05 02:40 55.6 29.95 24.59 55.6 55.6 2.95 4.74 1.86 285.3 275.2 0.0 0.0 56.73
2020-04-05 02:45 55.72 29.78 24.57 55.72 55.72 2.77 3.85 2.19 87.2 357.2 0.0 0.0 56.7
2020-04-05 02:50 54.63 31.51 24.96 54.63 54.63 0.81 2.24 1.07 290.9 334.6 0.0 0.0 56.66
2020-04-05 02:55 54.63 30.93 24.52 54.63 54.63 0.0 0.98 0.09 38.1 356.8 0.0 0.0 56.62
2020-04-05 03:00 55.0 30.15 24.23 55.0 55.0 0.0 2.24 0.85 0.3 19.1 0.0 0.0 56.59
2020-04-05 03:05 54.75 31.41 25.0 54.75 54.75 0.0 1.52 0.81 296.2 297.7 0.0 0.0 56.55
2020-04-05 03:10 54.27 31.34 24.52 54.27 54.27 1.16 2.06 1.01 324.3 320.4 0.0 0.0 56.52
2020-04-05 03:15 53.78 33.65 25.8 53.78 53.78 1.7 2.06 0.89 195.3 205.5 0.0 0.0 56.48
2020-04-05 03:20 52.81 34.74 25.71 52.81 52.81 0.0 1.88 1.16 110.2 161.8 0.0 0.0 56.44
2020-04-05 03:25 52.2 35.99 26.02 52.2 52.2 0.0 0.0 0.0 111.1 0.0 0.0 0.0 56.41
2020-04-05 03:30 51.4 38.53 26.97 51.4 51.4 3.67 3.67 0.36 207.5 209.5 0.0 0.0 56.37
2020-04-05 03:35 50.92 38.26 26.36 50.92 50.92 1.34 3.67 1.61 119.4 175.0 0.0 0.0 56.32
2020-04-05 03:40 50.85 39.48 27.06 50.85 50.85 0.81 1.34 0.56 211.9 156.0 0.0 0.0 56.28
2020-04-05 03:45 50.36 39.76 26.79 50.36 50.36 0.0 0.0 0.0 81.4 0.0 0.0 0.0 56.23
2020-04-05 03:50 49.75 39.89 26.32 49.75 49.75 0.0 0.0 0.0 81.7 0.0 0.0 0.0 56.21
2020-04-05 03:55 49.64 39.69 26.1 49.64 49.64 0.0 0.0 0.0 265.0 0.0 0.0 0.0 56.17
2020-04-05 04:00 49.89 41.32 27.3 49.89 49.89 1.52 1.52 0.18 202.0 203.0 0.0 0.0 56.14
2020-04-05 04:05 49.46 41.12 26.79 49.46 49.46 0.0 1.7 0.49 146.2 194.6 0.0 0.0 56.08
2020-04-05 04:10 49.03 41.87 26.84 49.03 49.03 1.16 1.16 0.07 81.8 76.5 0.0 0.0 56.05
2020-04-05 04:15 49.66 40.75 26.75 49.66 49.66 0.0 2.95 1.61 99.1 95.1 0.0 0.0 56.01
2020-04-05 04:20 49.28 42.28 27.31 49.28 49.28 2.59 2.77 1.28 229.3 209.2 0.0 0.0 55.99
2020-04-05 04:25 49.05 41.36 26.56 49.05 49.05 0.0 4.38 2.59 151.6 267.1 0.0 0.0 55.94
2020-04-05 04:30 49.17 40.99 26.46 49.17 49.17 0.0 2.06 1.21 73.2 79.0 0.0 0.0 55.9
2020-04-05 04:35 48.56 43.91 27.57 48.56 48.56 1.7 1.7 0.22 264.5 202.0 0.0 0.0 55.87
2020-04-05 04:40 48.25 43.74 27.2 47.09 48.25 3.67 5.1 2.21 268.3 265.9 0.0 0.0 55.83
2020-04-05 04:45 48.2 43.16 26.83 48.2 48.2 0.0 3.31 0.76 41.0 299.9 0.0 0.0 55.8
2020-04-05 04:50 48.07 43.4 26.85 48.07 48.07 0.98 0.98 0.09 21.3 25.2 0.0 0.0 55.74
2020-04-05 04:55 47.95 43.64 26.87 47.95 47.95 1.16 4.21 2.13 243.7 252.9 0.0 0.0 55.71
2020-04-05 05:00 47.84 43.98 26.96 47.84 47.84 0.0 1.16 0.36 226.8 148.0 0.0 0.0 55.67
2020-04-05 05:05 48.56 42.28 26.65 47.59 48.56 3.49 3.85 2.21 249.2 60.8 0.0 0.0 55.63
2020-04-05 05:10 48.2 43.23 26.87 48.2 48.2 1.88 3.67 1.66 77.2 134.1 0.0 0.0 55.6
2020-04-05 05:15 48.56 41.94 26.46 48.56 48.56 0.0 2.59 1.05 118.7 56.5 0.0 0.0 55.58
2020-04-05 05:20 48.33 44.32 27.59 48.33 48.33 0.81 3.67 1.14 172.5 188.6 0.0 0.0 55.53
2020-04-05 05:25 48.58 44.35 27.83 48.58 48.58 1.34 2.77 1.54 182.6 105.7 0.0 0.0 55.51
2020-04-05 05:30 48.07 43.98 27.17 48.07 48.07 1.7 3.31 1.9 95.0 221.0 0.0 0.0 55.47
2020-04-05 05:35 47.71 45.95 27.91 47.71 47.71 2.95 2.95 1.5 334.2 224.4 0.0 0.0 55.45
2020-04-05 05:40 47.84 46.15 28.13 47.84 47.84 1.52 3.13 1.28 182.1 224.8 0.0 0.0 55.4
2020-04-05 05:45 47.71 45.95 27.91 47.71 47.71 0.0 2.24 0.47 165.2 321.9 0.0 0.0 55.36
2020-04-05 05:50 47.23 47.34 28.19 47.23 47.23 0.0 3.67 1.25 123.1 180.6 0.0 0.0 55.33
2020-04-05 05:55 47.12 47.55 28.2 45.36 47.12 4.21 4.38 1.28 336.0 313.2 0.0 0.0 55.29
2020-04-05 06:00 47.23 47.24 28.14 47.23 47.23 2.77 4.03 1.36 206.8 266.3 0.0 0.0 55.27
2020-04-05 06:05 46.92 48.06 28.27 46.92 46.92 2.24 3.31 2.19 209.1 227.4 0.0 0.0 55.24
2020-04-05 06:10 46.74 48.4 28.28 46.74 46.74 0.0 2.06 0.51 235.1 210.0 0.0 0.0 55.2
2020-04-05 06:15 46.26 50.09 28.67 46.26 46.26 0.0 1.16 0.29 173.0 220.5 0.0 0.0 55.17
2020-04-05 06:20 46.44 48.53 28.07 46.44 46.44 0.0 1.34 0.49 64.6 97.3 0.0 0.0 55.13
2020-04-05 06:25 46.2 48.91 28.04 46.2 46.2 0.0 0.0 0.0 169.6 0.0 0.0 0.0 55.11
2020-04-05 06:30 46.2 51.42 29.26 46.2 46.2 0.0 1.16 0.43 204.0 175.1 0.0 0.0 55.08
2020-04-05 06:35 45.82 50.63 28.53 45.82 45.82 0.0 0.81 0.02 173.0 163.8 0.0 0.0 55.06
2020-04-05 06:40 45.59 51.58 28.77 45.59 45.59 0.0 0.0 0.0 224.7 0.0 0.0 0.0 55.02
2020-04-05 06:45 45.77 50.84 28.59 45.77 45.77 0.0 0.0 0.0 203.5 0.0 0.0 0.0 55.0
2020-04-05 06:50 45.77 50.57 28.46 45.77 45.77 0.0 0.0 0.0 156.9 0.0 0.0 0.001 54.97
2020-04-05 06:55 45.9 49.99 28.29 45.9 45.9 0.0 0.0 0.0 104.1 0.0 0.0 0.002 54.93
2020-04-05 07:00 46.0 50.36 28.57 46.0 46.0 0.0 1.16 0.18 201.5 150.3 0.0 0.004 54.91
2020-04-05 07:05 45.9 50.84 28.7 45.9 45.9 1.52 1.52 0.22 213.2 201.0 0.0 0.007 54.88
2020-04-05 07:10 46.13 51.11 29.05 46.13 46.13 0.0 1.52 0.27 242.4 205.7 0.0 0.013 54.84
2020-04-05 07:15 46.99 50.16 29.39 46.99 46.99 0.0 0.81 0.02 165.6 188.3 0.0 0.021 54.82
2020-04-05 07:20 48.15 47.92 29.33 48.15 48.15 0.81 1.7 0.54 175.2 177.7 0.0 0.025 54.81
2020-04-05 07:25 48.58 47.58 29.55 48.58 48.58 0.0 1.52 0.4 157.1 189.0 0.0 0.027 54.77
2020-04-05 07:30 49.42 45.99 29.49 49.42 49.42 2.59 2.59 1.1 175.7 178.0 0.0 0.04 54.75
2020-04-05 07:35 50.29 44.63 29.54 50.29 50.29 0.98 2.06 1.1 183.3 174.9 0.0 0.041 54.7
2020-04-05 07:40 51.13 43.13 29.47 51.13 51.13 1.52 2.06 0.72 177.5 179.1 0.0 0.041 54.7
2020-04-05 07:45 52.16 41.73 29.59 52.16 52.16 0.98 1.7 0.51 152.9 176.5 0.0 0.049 54.66
2020-04-05 07:50 52.95 40.78 29.74 52.95 52.95 1.7 2.59 1.23 176.4 170.0 0.0 0.057 54.64
2020-04-05 07:55 53.67 40.2 30.04 53.67 53.67 1.34 2.77 1.68 158.8 168.1 0.0 0.061 54.64
2020-04-05 08:00 54.46 39.42 30.27 54.46 54.46 2.06 3.13 1.88 152.8 161.2 0.0 0.068 54.64
2020-04-05 08:05 55.13 38.6 30.35 55.13 55.13 2.77 3.49 2.08 151.5 163.1 0.0 0.072 54.61
2020-04-05 08:10 55.36 38.53 30.51 55.36 55.36 2.06 2.95 2.33 184.7 186.8 0.0 0.071 54.61
2020-04-05 08:15 56.14 37.37 30.45 56.14 56.14 2.42 2.59 1.66 207.2 181.6 0.0 0.081 54.61
2020-04-05 08:20 57.18 36.83 31.02 57.18 57.18 1.16 2.95 1.81 174.1 173.3 0.0 0.084 54.61
2020-04-05 08:25 58.15 33.91 29.85 58.15 58.15 1.52 2.59 1.43 158.6 166.4 0.0 0.081 54.57
2020-04-05 08:30 58.87 33.57 30.23 58.87 58.87 1.16 3.85 1.7 183.9 158.5 0.0 0.093 54.59
2020-04-05 08:35 60.21 32.65 30.72 60.21 60.21 0.0 1.34 0.27 157.4 161.3 0.0 0.097 54.59
2020-04-05 08:40 61.54 30.65 30.32 61.54 61.54 0.98 2.06 0.74 210.4 142.0 0.0 0.108 54.59
2020-04-05 08:45 61.05 30.24 29.57 61.05 61.05 1.34 4.03 2.08 175.0 184.0 0.0 0.112 54.61
2020-04-05 08:50 60.55 30.1 29.02 60.55 60.55 2.06 3.67 2.24 224.5 202.6 0.0 0.118 54.59
2020-04-05 08:55 61.03 30.3 29.6 61.03 61.03 1.88 2.06 1.54 152.8 196.5 0.0 0.123 54.59
2020-04-05 09:00 61.21 30.5 29.92 61.21 61.21 2.95 2.95 2.13 282.2 267.4 0.0 0.129 54.61
2020-04-05 09:05 60.78 31.04 29.98 60.78 60.78 3.85 5.64 3.13 300.6 235.8 0.0 0.124 54.63
2020-04-05 09:10 60.66 31.52 30.24 60.66 60.66 4.38 5.64 3.11 251.4 268.6 0.0 0.136 54.63
2020-04-05 09:15 60.76 31.24 30.12 60.76 60.76 6.53 7.78 5.3 298.0 269.9 0.0 0.144 54.64
2020-04-05 09:20 60.53 30.63 29.43 60.53 60.53 4.03 5.64 4.14 207.3 260.7 0.0 0.142 54.66
2020-04-05 09:25 61.12 31.11 30.33 61.12 61.12 6.89 7.43 3.13 221.1 262.0 0.0 0.145 54.68
2020-04-05 09:30 61.48 30.43 30.1 61.48 61.48 2.95 6.17 3.91 249.6 247.0 0.0 0.159 54.7
2020-04-05 09:35 62.33 29.55 30.11 62.33 62.33 4.74 6.0 3.4 203.9 236.0 0.0 0.163 54.73
2020-04-05 09:40 62.51 29.58 30.29 62.51 62.51 3.85 7.07 4.32 279.7 240.1 0.0 0.165 54.77
2020-04-05 09:45 62.94 29.27 30.41 62.94 62.94 7.43 10.63 5.91 223.8 230.4 0.0 0.166 54.75
2020-04-05 09:50 63.05 27.85 29.28 63.05 63.05 9.57 9.91 7.0 281.0 249.7 0.0 0.174 54.79
2020-04-05 09:55 63.36 27.3 29.05 63.36 63.36 5.1 10.09 6.69 273.1 267.0 0.0 0.174 54.82
2020-04-05 10:00 63.48 28.12 29.89 63.48 63.48 6.53 8.12 5.7 267.8 257.9 0.0 0.174 54.86
2020-04-05 10:05 63.48 27.37 29.22 63.48 63.48 3.13 9.4 6.26 236.8 254.4 0.0 0.185 54.9
2020-04-05 10:10 64.15 25.68 28.24 64.15 64.15 8.86 10.45 6.51 255.4 244.6 0.0 0.193 54.93
2020-04-05 10:15 64.58 24.9 27.85 64.58 64.58 4.38 11.34 6.71 281.2 260.9 0.0 0.197 54.97
2020-04-05 10:20 65.12 25.41 28.81 65.12 65.12 7.96 9.04 5.97 284.9 266.7 0.0 0.206 55.0
2020-04-05 10:25 65.43 24.25 27.93 65.43 65.43 8.86 10.98 7.02 292.0 234.3 0.0 0.209 55.08
2020-04-05 10:30 65.98 23.54 27.67 65.98 65.98 4.74 9.22 6.26 261.8 259.7 0.0 0.211 55.13
2020-04-05 10:35 66.47 24.56 29.12 66.47 66.47 6.0 9.22 5.37 227.1 260.9 0.0 0.216 55.17
2020-04-05 10:40 66.09 23.07 27.28 66.09 66.09 4.74 8.68 6.51 236.4 263.6 0.0 0.223 55.22
2020-04-05 10:45 66.22 21.78 25.99 66.22 66.22 12.06 12.06 7.85 254.0 250.9 0.0 0.227 55.27
2020-04-05 10:50 66.09 22.12 26.26 66.09 66.09 7.25 10.45 7.54 289.2 274.3 0.0 0.228 55.33
2020-04-05 10:55 67.19 21.88 26.91 67.19 67.19 7.07 9.22 5.37 249.5 263.3 0.0 0.229 55.38
2020-04-05 11:00 66.76 21.34 25.95 66.76 66.76 4.03 10.09 6.78 263.3 249.6 0.0 0.237 55.44

Data is courtesy of the NM Climate Center. DO NOT USE IN LEGAL PROCEEDINGS.